createdAt,value
2018-12-01T00:00:16.598Z,856.32
2018-12-01T00:01:16.601Z,856.30
2018-12-01T00:03:10.254Z,856.28
2018-12-01T00:04:09.931Z,856.31
2018-12-01T00:06:03.260Z,856.32
2018-12-01T00:07:03.242Z,856.34
2018-12-01T00:08:56.853Z,856.33
2018-12-01T00:09:56.591Z,856.34
2018-12-01T00:11:49.937Z,856.38
2018-12-01T00:12:50.013Z,856.41
2018-12-01T00:14:44.138Z,856.41
2018-12-01T00:15:43.282Z,856.41
2018-12-01T00:17:36.653Z,856.48
2018-12-01T00:18:36.663Z,856.48
2018-12-01T00:20:30.210Z,856.49
2018-12-01T00:21:30.011Z,856.49
2018-12-01T00:23:23.334Z,856.46
2018-12-01T00:24:23.331Z,856.43
2018-12-01T00:26:16.917Z,856.39
2018-12-01T00:27:16.701Z,856.37
2018-12-01T00:29:10.049Z,856.27
2018-12-01T00:30:10.015Z,856.27
2018-12-01T00:32:04.155Z,856.30
2018-12-01T00:33:03.403Z,856.25
2018-12-01T00:34:56.761Z,856.29
2018-12-01T00:35:56.719Z,856.26
2018-12-01T00:37:50.422Z,856.24
2018-12-01T00:38:50.054Z,856.22
2018-12-01T00:40:43.422Z,856.22
2018-12-01T00:41:43.402Z,856.25
2018-12-01T00:43:36.989Z,856.24
2018-12-01T00:44:36.776Z,856.23
2018-12-01T00:46:30.130Z,856.24
2018-12-01T00:47:30.121Z,856.28
2018-12-01T00:49:23.658Z,856.28
2018-12-01T00:50:23.440Z,856.21
2018-12-01T00:52:17.410Z,856.23
2018-12-01T00:53:16.808Z,856.24
2018-12-01T00:55:10.357Z,856.22
2018-12-01T00:56:10.120Z,856.20
2018-12-01T00:58:03.077Z,856.15
2018-12-01T00:59:03.026Z,856.13
2018-12-01T01:00:56.099Z,856.14
2018-12-01T01:01:55.860Z,856.12
2018-12-01T01:03:49.246Z,856.16
2018-12-01T01:04:49.353Z,856.11
2018-12-01T01:06:42.877Z,856.09
2018-12-01T01:07:42.568Z,856.05
2018-12-01T01:09:35.929Z,856.03
2018-12-01T01:10:35.887Z,856.04
2018-12-01T01:12:30.667Z,856.03
2018-12-01T01:13:29.234Z,856.06
2018-12-01T01:15:22.614Z,856.03
2018-12-01T01:16:22.576Z,856.06
2018-12-01T01:18:16.165Z,856.06
2018-12-01T01:19:15.935Z,856.07
2018-12-01T01:21:09.911Z,856.08
2018-12-01T01:22:09.281Z,856.06
2018-12-01T01:24:03.607Z,856.08
2018-12-01T01:25:03.404Z,856.03
2018-12-01T01:26:57.366Z,856.04
2018-12-01T01:27:56.765Z,856.05
2018-12-01T01:29:50.330Z,856.02
2018-12-01T01:30:50.067Z,855.97
2018-12-01T01:32:43.452Z,855.93
2018-12-01T01:33:43.411Z,855.89
2018-12-01T01:35:36.990Z,855.87
2018-12-01T01:36:36.801Z,855.92
2018-12-01T01:38:30.111Z,855.97
2018-12-01T01:39:30.111Z,855.95
2018-12-01T01:41:23.713Z,855.96
2018-12-01T01:42:23.489Z,855.99
2018-12-01T01:44:17.396Z,855.97
2018-12-01T01:45:16.836Z,855.95
2018-12-01T01:47:10.381Z,855.84
2018-12-01T01:48:10.180Z,855.81
2018-12-01T01:50:03.533Z,855.73
2018-12-01T01:51:03.541Z,855.69
2018-12-01T01:54:29.199Z,855.73
2018-12-01T01:55:28.913Z,855.71
2018-12-01T01:57:22.268Z,855.63
2018-12-01T01:58:22.294Z,855.58
2018-12-01T02:00:15.874Z,855.61
2018-12-01T02:01:15.601Z,855.61
2018-12-01T02:03:08.960Z,855.68
2018-12-01T02:04:08.961Z,855.69
2018-12-01T02:06:02.540Z,855.62
2018-12-01T02:07:02.366Z,855.60
2018-12-01T02:08:55.726Z,855.60
2018-12-01T02:09:55.672Z,855.57
2018-12-01T02:11:49.348Z,855.61
2018-12-01T02:12:49.146Z,855.60
2018-12-01T02:14:42.485Z,855.60
2018-12-01T02:15:42.472Z,855.64
2018-12-01T02:17:36.159Z,855.60
2018-12-01T02:18:35.847Z,855.62
2018-12-01T02:20:29.193Z,855.54
2018-12-01T02:21:29.147Z,855.51
2018-12-01T02:23:23.328Z,855.49
2018-12-01T02:24:22.531Z,855.44
2018-12-01T02:26:15.370Z,855.47
2018-12-01T02:27:15.391Z,855.45
2018-12-01T02:29:08.927Z,855.48
2018-12-01T02:30:08.747Z,855.49
2018-12-01T02:32:02.099Z,855.44
2018-12-01T02:33:02.088Z,855.43
2018-12-01T02:34:55.643Z,855.46
2018-12-01T02:35:55.440Z,855.43
2018-12-01T02:37:48.760Z,855.37
2018-12-01T02:38:48.745Z,855.41
2018-12-01T02:40:42.429Z,855.41
2018-12-01T02:41:41.648Z,855.42
2018-12-01T02:43:35.018Z,855.48
2018-12-01T02:44:34.970Z,855.43
2018-12-01T02:46:28.565Z,855.41
2018-12-01T02:47:28.329Z,855.39
2018-12-01T02:49:21.692Z,855.33
2018-12-01T02:50:21.679Z,855.35
2018-12-01T02:52:15.275Z,855.35
2018-12-01T02:53:15.033Z,855.32
2018-12-01T02:55:08.425Z,855.23
2018-12-01T02:56:08.380Z,855.21
2018-12-01T02:58:01.938Z,855.26
2018-12-01T02:59:01.716Z,855.27
2018-12-01T03:00:55.632Z,855.21
2018-12-01T03:01:55.062Z,855.24
2018-12-01T03:03:48.651Z,855.18
2018-12-01T03:04:48.381Z,855.23
2018-12-01T03:06:42.371Z,855.27
2018-12-01T03:07:41.732Z,855.24
2018-12-01T03:09:35.324Z,855.26
2018-12-01T03:10:35.101Z,855.24
2018-12-01T03:12:28.428Z,855.26
2018-12-01T03:13:28.419Z,855.21
2018-12-01T03:15:22.099Z,855.20
2018-12-01T03:16:21.752Z,855.16
2018-12-01T03:18:15.142Z,855.10
2018-12-01T03:19:15.097Z,855.09
2018-12-01T03:21:08.192Z,855.03
2018-12-01T03:22:07.960Z,855.00
2018-12-01T03:24:01.335Z,855.00
2018-12-01T03:25:01.311Z,855.02
2018-12-01T03:26:54.919Z,854.99
2018-12-01T03:27:54.664Z,854.97
2018-12-01T03:29:48.003Z,854.92
2018-12-01T03:30:48.016Z,854.92
2018-12-01T03:32:41.608Z,854.92
2018-12-01T03:33:41.340Z,854.97
2018-12-01T03:35:34.738Z,854.97
2018-12-01T03:36:34.686Z,854.97
2018-12-01T03:38:28.266Z,854.94
2018-12-01T03:39:28.036Z,854.94
2018-12-01T03:41:21.436Z,854.91
2018-12-01T03:42:21.424Z,854.90
2018-12-01T03:44:14.939Z,854.95
2018-12-01T03:45:14.740Z,854.90
2018-12-01T03:47:08.084Z,854.89
2018-12-01T03:48:08.124Z,854.90
2018-12-01T03:50:01.704Z,854.94
2018-12-01T03:51:01.446Z,854.86
2018-12-01T03:52:54.853Z,854.83
2018-12-01T03:53:54.835Z,854.82
2018-12-01T03:55:48.407Z,854.84
2018-12-01T03:56:48.170Z,854.85
2018-12-01T03:58:41.504Z,854.90
2018-12-01T03:59:41.519Z,854.93
2018-12-01T04:01:35.067Z,854.80
2018-12-01T04:02:34.851Z,854.76
2018-12-01T04:04:28.235Z,854.78
2018-12-01T04:05:28.188Z,854.74
2018-12-01T04:07:21.789Z,854.70
2018-12-01T04:08:21.570Z,854.66
2018-12-01T04:10:14.891Z,854.67
2018-12-01T04:11:14.884Z,854.65
2018-12-01T04:13:08.487Z,854.69
2018-12-01T04:14:08.240Z,854.66
2018-12-01T04:16:02.239Z,854.67
2018-12-01T04:17:01.580Z,854.65
2018-12-01T04:18:55.158Z,854.65
2018-12-01T04:19:54.975Z,854.63
2018-12-01T04:21:48.275Z,854.52
2018-12-01T04:22:48.268Z,854.46
2018-12-01T04:24:40.837Z,854.37
2018-12-01T04:25:40.607Z,854.39
2018-12-01T04:27:33.967Z,854.40
2018-12-01T04:28:33.982Z,854.42
2018-12-01T04:30:27.544Z,854.47
2018-12-01T04:31:27.297Z,854.46
2018-12-01T04:33:20.666Z,854.49
2018-12-01T04:34:20.673Z,854.50
2018-12-01T04:36:14.848Z,854.48
2018-12-01T04:37:13.992Z,854.45
2018-12-01T04:39:07.387Z,854.38
2018-12-01T04:40:07.389Z,854.35
2018-12-01T04:42:00.935Z,854.30
2018-12-01T04:43:00.691Z,854.36
2018-12-01T04:44:54.028Z,854.40
2018-12-01T04:45:54.064Z,854.40
2018-12-01T04:49:20.271Z,854.43
2018-12-01T04:50:19.500Z,854.46
2018-12-01T04:52:12.837Z,854.51
2018-12-01T04:53:12.832Z,854.44
2018-12-01T04:55:06.371Z,854.41
2018-12-01T04:56:06.183Z,854.39
2018-12-01T04:57:59.505Z,854.46
2018-12-01T04:58:59.537Z,854.40
2018-12-01T05:00:53.068Z,854.48
2018-12-01T05:01:52.844Z,854.48
2018-12-01T05:03:46.221Z,854.48
2018-12-01T05:04:46.184Z,854.44
2018-12-01T05:06:39.753Z,854.37
2018-12-01T05:07:39.538Z,854.38
2018-12-01T05:09:32.928Z,854.42
2018-12-01T05:10:32.884Z,854.43
2018-12-01T05:12:26.481Z,854.40
2018-12-01T05:13:26.217Z,854.37
2018-12-01T05:15:19.578Z,854.30
2018-12-01T05:16:19.568Z,854.27
2018-12-01T05:18:13.168Z,854.30
2018-12-01T05:19:12.931Z,854.36
2018-12-01T05:21:06.276Z,854.31
2018-12-01T05:22:06.255Z,854.34
2018-12-01T05:23:59.892Z,854.33
2018-12-01T05:24:59.653Z,854.27
2018-12-01T05:26:53.592Z,854.17
2018-12-01T05:27:52.971Z,854.16
2018-12-01T05:29:46.577Z,854.16
2018-12-01T05:30:46.319Z,854.16
2018-12-01T05:32:40.260Z,854.18
2018-12-01T05:33:39.655Z,854.17
2018-12-01T05:35:33.346Z,854.15
2018-12-01T05:36:33.066Z,854.11
2018-12-01T05:38:26.380Z,854.10
2018-12-01T05:39:26.360Z,854.08
2018-12-01T05:41:19.993Z,854.04
2018-12-01T05:42:19.734Z,854.07
2018-12-01T05:44:13.077Z,854.09
2018-12-01T05:45:13.050Z,854.04
2018-12-01T05:47:06.626Z,854.05
